METAR Data
IDs: Format: Raw Decoded Include TAF

Data at: 0236 UTC 18 Jun 2019

PAII 180156Z AUTO 28008KT 10SM SCT075 13/10 A2970 RMK AO2 SLP060 T01330100
PAII 172356Z AUTO 29011KT 10SM SCT047 BKN060 BKN085 14/09 A2970 RMK AO2 SLP060 T01390094 10167 20122 53004
PAII 172256Z AUTO 29009KT 10SM FEW055 15/10 A2970 RMK AO2 SLP059 T01500100
PAII 172156Z AUTO 31010KT 10SM SCT100 16/10 A2969 RMK AO2 SLP056 T01610100
PAII 172056Z AUTO 33009KT 10SM OVC100 15/08 A2969 RMK AO2 SLP056 T01500083 56001
PAII 171956Z AUTO 35007KT 10SM BKN110 15/07 A2969 RMK AO2 SLP056 T01500072
PAII 171856Z AUTO 35006KT 10SM CLR 14/08 A2969 RMK AO2 SLP055 T01440078
PAII 171656Z AUTO 35008KT 10SM BKN044 12/09 A2969 RMK AO2 SLP055 T01170094
PAII 171556Z AUTO 35006KT 10SM BKN044 BKN060 11/08 A2969 RMK AO2 SLP056 T01060078
PAII 171456Z AUTO 35005KT 10SM BKN048 OVC060 09/07 A2968 RMK AO2 SLP055 T00890072 56006
PAII 171356Z AUTO 00000KT 10SM FEW055 08/06 A2968 RMK AO2 SLP055 T00780061
PAII 171256Z AUTO 01003KT 10SM BKN090 08/06 A2969 RMK AO2 SLP059 T00780061
PAII 171156Z AUTO 07003KT 10SM OVC090 08/07 A2970 RMK AO2 SLP061 60000 70006 T00780072 10128 20072 55000
PAII 171056Z AUTO 10004KT 10SM OVC080 07/07 A2970 RMK AO2 SLP061 T00720067
PAII 170956Z AUTO 07003KT 10SM SCT080 OVC090 09/07 A2970 RMK AO2 SLP060 T00890067
PAII 170856Z AUTO 02004KT 10SM OVC100 09/08 A2970 RMK AO2 SLP061 60000 T00940078 50002
PAII 170756Z AUTO 03003KT 10SM SCT075 OVC090 10/08 A2971 RMK AO2 RAE54 SLP063 P0000 T01000083 401560072
PAII 170656Z AUTO 03003KT 10SM -RA SCT030 BKN048 BKN080 11/08 A2971 RMK AO2 RAB42 SLP063 P0000 T01110078
PAII 170603Z AUTO 01006KT 10SM BKN034 OVC040 12/08 A2969 RMK AO2
PAII 170556Z AUTO 36006KT 10SM BKN029 OVC038 13/08 A2969 RMK AO2 SLP059 T01280083 10156 20128 53001
PAII 170456Z AUTO VRB03KT 10SM OVC047 14/07 A2969 RMK AO2 SLP057 T01390072
PAII 170356Z AUTO 18003KT 10SM SCT047 15/05 A2969 RMK AO2 SLP058 T01500050
PAII 170256Z AUTO 14006KT 10SM OVC047 15/05 A2969 RMK AO2 SLP058 T01500050 56005
PAII 170156Z AUTO 17009KT 10SM BKN045 15/05 A2969 RMK AO2 SLP058 T01500050
PAII 170056Z AUTO 15009KT 10SM BKN049 OVC060 15/07 A2970 RMK AO2 SLP061 T01500067
PAII 162356Z AUTO 31004KT 10SM FEW032 BKN039 BKN050 13/10 A2971 RMK AO2 RAE15 SLP063 P0001 60006 T01280100 10133 20117 58002
PAII 162311Z AUTO 29004KT 10SM -RA FEW014 BKN041 OVC049 12/10 A2971 RMK AO2 P0001
PAII 162256Z AUTO 00000KT 6SM RA BR SCT014 BKN025 OVC050 12/09 A2972 RMK AO2 RAB14 SLP066 P0004 T01170094
PAII 162156Z AUTO 28007KT 10SM SCT013 BKN019 OVC060 12/11 A2971 RMK AO2 RAB06E56 SLP065 P0001 T01220106
PAII 162152Z AUTO 28007KT 10SM -RA BKN013 BKN021 OVC060 12/11 A2971 RMK AO2 RAB06 P0001
PAII 162056Z AUTO 25007KT 10SM FEW026 BKN032 OVC045 12/10 A2971 RMK AO2 RAB06E19B35E52 SLP066 P0000 60000 T01220100 55003
PAII 162003Z AUTO 30008KT 10SM SCT029 BKN040 OVC048 12/09 A2971 RMK AO2
PAII 161948Z AUTO 30007KT 10SM BKN029 BKN034 OVC042 12/09 A2971 RMK AO2
PAII 161856Z AUTO 31005KT 10SM SCT018 BKN043 BKN075 13/09 A2972 RMK AO2 SLP066 T01280094
PAII 161756Z AUTO 32005KT 10SM BKN015 BKN038 12/08 A2972 RMK AO2 SLP068 T01220083 10122 20072 58001
PAII 161744Z AUTO VRB03KT 10SM BKN013 12/09 A2973 RMK AO2
PAII 161656Z AUTO 00000KT 10SM OVC015 10/07 A2973 RMK AO2 SLP069 T01000072
PAII 161621Z AUTO 13003KT 10SM BKN015 OVC065 09/07 A2973 RMK AO2
PAII 161556Z AUTO 00000KT 10SM FEW015 OVC060 09/08 A2973 RMK AO2 SLP069 T00890078
PAII 161456Z AUTO 00000KT 10SM FEW047 OVC060 08/07 A2973 RMK AO2 SLP070 T00780072 56005